EPWR

Copernicus Wrocław Airport

Wrocław, Poland
METAR EPWR 250800Z 23014KT CAVOK 19/09 Q1009
Observed Flight Rules
Apr-25 @ 08:00 UTC (31 minutes ago) Visual Flight Rules
Wind Visibility Clouds
230° at 14 knots 10,000+ meters
  • Clear skies
Temperatures Readings
Current 19°C / 66°F
Dewpoint 9°C / 48°F
Humidity 52%
Altimeter 29.79" Hg
Pressure 1009 hPa
Elevation 121
METAR EPWR 250800Z 23014KT CAVOK 19/09 Q1009
Observed Flight Rules
Apr-25 @ 08:00 UTC
(31 minutes ago)
VFR
Wind Visibility
230° at 14 knots 10,000+ meters
Clouds
  • Clear skies
Temperature Dewpoint
19°C / 66°F 9°C / 48°F
Humidity Altimeter Pressure
52% 29.79" Hg 1009 hPa